sensor_id;sensor_type;location;lat;lon;timestamp;P1;durP1;ratioP1;P2;durP2;ratioP2
6209;SDS011;3138;52.550;13.148;2022-11-20T00:01:16;24.77;;;14.60;;
6209;SDS011;3138;52.550;13.148;2022-11-20T00:03:44;22.70;;;12.60;;
6209;SDS011;3138;52.550;13.148;2022-11-20T00:06:13;27.53;;;15.53;;
6209;SDS011;3138;52.550;13.148;2022-11-20T00:08:41;28.80;;;14.83;;
6209;SDS011;3138;52.550;13.148;2022-11-20T00:11:10;25.20;;;14.60;;
6209;SDS011;3138;52.550;13.148;2022-11-20T00:13:38;25.70;;;14.43;;
6209;SDS011;3138;52.550;13.148;2022-11-20T00:16:06;33.07;;;12.93;;
6209;SDS011;3138;52.550;13.148;2022-11-20T00:18:35;24.63;;;13.63;;
6209;SDS011;3138;52.550;13.148;2022-11-20T00:21:02;22.40;;;14.13;;
6209;SDS011;3138;52.550;13.148;2022-11-20T00:23:31;27.07;;;14.33;;
6209;SDS011;3138;52.550;13.148;2022-11-20T00:26:00;27.83;;;15.50;;
6209;SDS011;3138;52.550;13.148;2022-11-20T00:28:28;22.43;;;12.87;;
6209;SDS011;3138;52.550;13.148;2022-11-20T00:30:59;27.97;;;14.10;;
6209;SDS011;3138;52.550;13.148;2022-11-20T00:33:28;18.30;;;11.80;;
6209;SDS011;3138;52.550;13.148;2022-11-20T00:35:58;31.00;;;13.30;;
6209;SDS011;3138;52.550;13.148;2022-11-20T00:38:26;23.67;;;14.00;;
6209;SDS011;3138;52.550;13.148;2022-11-20T00:40:57;24.07;;;14.07;;
6209;SDS011;3138;52.550;13.148;2022-11-20T00:43:24;24.73;;;15.13;;
6209;SDS011;3138;52.550;13.148;2022-11-20T00:45:55;23.90;;;13.63;;
6209;SDS011;3138;52.550;13.148;2022-11-20T00:48:23;24.60;;;12.13;;
6209;SDS011;3138;52.550;13.148;2022-11-20T00:50:49;23.00;;;12.57;;
6209;SDS011;3138;52.550;13.148;2022-11-20T00:53:16;22.60;;;14.03;;
6209;SDS011;3138;52.550;13.148;2022-11-20T00:55:43;20.50;;;12.40;;
6209;SDS011;3138;52.550;13.148;2022-11-20T00:58:20;28.90;;;12.73;;
6209;SDS011;3138;52.550;13.148;2022-11-20T01:00:47;25.30;;;12.70;;
6209;SDS011;3138;52.550;13.148;2022-11-20T01:03:14;21.73;;;12.50;;
6209;SDS011;3138;52.550;13.148;2022-11-20T01:05:41;23.40;;;14.70;;
6209;SDS011;3138;52.550;13.148;2022-11-20T01:08:08;23.27;;;14.00;;
6209;SDS011;3138;52.550;13.148;2022-11-20T01:10:35;21.23;;;13.53;;
6209;SDS011;3138;52.550;13.148;2022-11-20T01:13:02;26.00;;;13.70;;
6209;SDS011;3138;52.550;13.148;2022-11-20T01:15:48;23.00;;;14.60;;
6209;SDS011;3138;52.550;13.148;2022-11-20T01:18:15;21.13;;;12.77;;
6209;SDS011;3138;52.550;13.148;2022-11-20T01:20:41;23.60;;;13.60;;
6209;SDS011;3138;52.550;13.148;2022-11-20T01:23:08;21.90;;;13.70;;
6209;SDS011;3138;52.550;13.148;2022-11-20T01:25:35;25.30;;;14.30;;
6209;SDS011;3138;52.550;13.148;2022-11-20T01:28:02;24.60;;;12.93;;
6209;SDS011;3138;52.550;13.148;2022-11-20T01:30:29;23.10;;;13.90;;
6209;SDS011;3138;52.550;13.148;2022-11-20T01:32:57;28.70;;;13.07;;
6209;SDS011;3138;52.550;13.148;2022-11-20T01:35:24;25.13;;;14.80;;
6209;SDS011;3138;52.550;13.148;2022-11-20T01:37:50;21.27;;;14.13;;
6209;SDS011;3138;52.550;13.148;2022-11-20T01:40:17;27.33;;;12.53;;
6209;SDS011;3138;52.550;13.148;2022-11-20T01:42:46;25.57;;;14.57;;
6209;SDS011;3138;52.550;13.148;2022-11-20T01:45:50;20.83;;;14.27;;
6209;SDS011;3138;52.550;13.148;2022-11-20T01:48:30;22.17;;;13.50;;
6209;SDS011;3138;52.550;13.148;2022-11-20T01:51:01;26.90;;;13.70;;
6209;SDS011;3138;52.550;13.148;2022-11-20T01:53:30;18.83;;;12.90;;
6209;SDS011;3138;52.550;13.148;2022-11-20T01:56:01;24.40;;;14.63;;
6209;SDS011;3138;52.550;13.148;2022-11-20T01:58:32;22.87;;;13.83;;
6209;SDS011;3138;52.550;13.148;2022-11-20T02:01:02;20.50;;;12.93;;
6209;SDS011;3138;52.550;13.148;2022-11-20T02:03:32;29.70;;;14.43;;
6209;SDS011;3138;52.550;13.148;2022-11-20T02:06:01;19.30;;;14.07;;
6209;SDS011;3138;52.550;13.148;2022-11-20T02:08:33;24.97;;;14.97;;
6209;SDS011;3138;52.550;13.148;2022-11-20T02:11:01;23.07;;;13.53;;
6209;SDS011;3138;52.550;13.148;2022-11-20T02:13:28;22.90;;;15.10;;
6209;SDS011;3138;52.550;13.148;2022-11-20T02:16:10;25.37;;;15.57;;
6209;SDS011;3138;52.550;13.148;2022-11-20T02:18:40;23.80;;;14.80;;
6209;SDS011;3138;52.550;13.148;2022-11-20T02:21:09;23.80;;;14.10;;
6209;SDS011;3138;52.550;13.148;2022-11-20T02:23:58;24.77;;;13.57;;
6209;SDS011;3138;52.550;13.148;2022-11-20T02:26:27;27.47;;;16.27;;
6209;SDS011;3138;52.550;13.148;2022-11-20T02:28:57;23.63;;;13.90;;
6209;SDS011;3138;52.550;13.148;2022-11-20T02:31:25;23.40;;;15.40;;
6209;SDS011;3138;52.550;13.148;2022-11-20T02:33:54;25.93;;;13.90;;
6209;SDS011;3138;52.550;13.148;2022-11-20T02:36:22;22.57;;;12.90;;
6209;SDS011;3138;52.550;13.148;2022-11-20T02:38:52;27.50;;;15.00;;
6209;SDS011;3138;52.550;13.148;2022-11-20T02:41:20;24.20;;;13.23;;
6209;SDS011;3138;52.550;13.148;2022-11-20T02:43:48;26.33;;;14.30;;
6209;SDS011;3138;52.550;13.148;2022-11-20T02:46:14;27.77;;;16.17;;
6209;SDS011;3138;52.550;13.148;2022-11-20T02:48:41;29.10;;;15.27;;
6209;SDS011;3138;52.550;13.148;2022-11-20T02:51:08;26.57;;;15.53;;
6209;SDS011;3138;52.550;13.148;2022-11-20T02:53:35;28.57;;;14.97;;
6209;SDS011;3138;52.550;13.148;2022-11-20T02:56:02;30.77;;;16.13;;
6209;SDS011;3138;52.550;13.148;2022-11-20T02:58:30;30.00;;;17.17;;
6209;SDS011;3138;52.550;13.148;2022-11-20T03:00:57;35.43;;;17.30;;
6209;SDS011;3138;52.550;13.148;2022-11-20T03:03:24;26.37;;;15.27;;
6209;SDS011;3138;52.550;13.148;2022-11-20T03:05:50;30.83;;;16.57;;
6209;SDS011;3138;52.550;13.148;2022-11-20T03:08:17;35.90;;;18.33;;
6209;SDS011;3138;52.550;13.148;2022-11-20T03:10:44;28.77;;;17.07;;
6209;SDS011;3138;52.550;13.148;2022-11-20T03:13:11;30.70;;;17.83;;
6209;SDS011;3138;52.550;13.148;2022-11-20T03:15:39;29.97;;;17.57;;
6209;SDS011;3138;52.550;13.148;2022-11-20T03:18:06;31.10;;;15.60;;
6209;SDS011;3138;52.550;13.148;2022-11-20T03:20:33;39.50;;;17.70;;
6209;SDS011;3138;52.550;13.148;2022-11-20T03:23:00;29.70;;;17.20;;
6209;SDS011;3138;52.550;13.148;2022-11-20T03:25:27;36.50;;;18.87;;
6209;SDS011;3138;52.550;13.148;2022-11-20T03:27:54;29.20;;;16.67;;
6209;SDS011;3138;52.550;13.148;2022-11-20T03:30:21;28.87;;;16.50;;
6209;SDS011;3138;52.550;13.148;2022-11-20T03:32:52;36.17;;;16.77;;
6209;SDS011;3138;52.550;13.148;2022-11-20T03:35:19;35.37;;;17.67;;
6209;SDS011;3138;52.550;13.148;2022-11-20T03:37:46;35.47;;;17.53;;
6209;SDS011;3138;52.550;13.148;2022-11-20T03:40:13;34.90;;;18.33;;
6209;SDS011;3138;52.550;13.148;2022-11-20T03:42:40;37.67;;;16.77;;
6209;SDS011;3138;52.550;13.148;2022-11-20T03:45:13;32.70;;;17.00;;
6209;SDS011;3138;52.550;13.148;2022-11-20T03:47:41;29.43;;;16.80;;
6209;SDS011;3138;52.550;13.148;2022-11-20T03:50:10;27.90;;;15.90;;
6209;SDS011;3138;52.550;13.148;2022-11-20T03:52:38;32.80;;;18.30;;
6209;SDS011;3138;52.550;13.148;2022-11-20T03:55:05;32.90;;;19.30;;
6209;SDS011;3138;52.550;13.148;2022-11-20T03:57:33;33.63;;;17.70;;
6209;SDS011;3138;52.550;13.148;2022-11-20T03:59:59;30.90;;;17.20;;
6209;SDS011;3138;52.550;13.148;2022-11-20T04:02:26;32.70;;;18.63;;
6209;SDS011;3138;52.550;13.148;2022-11-20T04:04:53;35.33;;;16.57;;
6209;SDS011;3138;52.550;13.148;2022-11-20T04:07:21;35.70;;;18.70;;
6209;SDS011;3138;52.550;13.148;2022-11-20T04:09:48;36.30;;;19.77;;
6209;SDS011;3138;52.550;13.148;2022-11-20T04:12:15;38.03;;;22.03;;
6209;SDS011;3138;52.550;13.148;2022-11-20T04:14:42;42.63;;;19.90;;
6209;SDS011;3138;52.550;13.148;2022-11-20T04:17:08;34.30;;;18.83;;
6209;SDS011;3138;52.550;13.148;2022-11-20T04:19:35;41.53;;;18.47;;
6209;SDS011;3138;52.550;13.148;2022-11-20T04:22:02;32.43;;;18.37;;
6209;SDS011;3138;52.550;13.148;2022-11-20T04:24:30;28.93;;;16.67;;
6209;SDS011;3138;52.550;13.148;2022-11-20T04:26:57;34.23;;;18.93;;
6209;SDS011;3138;52.550;13.148;2022-11-20T04:29:24;36.93;;;19.60;;
6209;SDS011;3138;52.550;13.148;2022-11-20T04:31:51;29.90;;;18.67;;
6209;SDS011;3138;52.550;13.148;2022-11-20T04:34:17;30.67;;;17.70;;
6209;SDS011;3138;52.550;13.148;2022-11-20T04:36:44;35.83;;;19.03;;
6209;SDS011;3138;52.550;13.148;2022-11-20T04:39:12;37.73;;;19.10;;
6209;SDS011;3138;52.550;13.148;2022-11-20T04:41:41;36.67;;;18.53;;
6209;SDS011;3138;52.550;13.148;2022-11-20T04:44:08;32.60;;;18.33;;
6209;SDS011;3138;52.550;13.148;2022-11-20T04:46:36;39.07;;;21.10;;
6209;SDS011;3138;52.550;13.148;2022-11-20T04:49:04;38.67;;;19.70;;
6209;SDS011;3138;52.550;13.148;2022-11-20T04:51:31;40.27;;;21.20;;
6209;SDS011;3138;52.550;13.148;2022-11-20T04:53:58;34.57;;;18.30;;
6209;SDS011;3138;52.550;13.148;2022-11-20T04:56:25;42.00;;;20.97;;
6209;SDS011;3138;52.550;13.148;2022-11-20T04:58:53;36.67;;;20.13;;
6209;SDS011;3138;52.550;13.148;2022-11-20T05:01:21;32.73;;;17.30;;
6209;SDS011;3138;52.550;13.148;2022-11-20T05:03:49;36.50;;;18.80;;
6209;SDS011;3138;52.550;13.148;2022-11-20T05:06:18;39.00;;;20.43;;
6209;SDS011;3138;52.550;13.148;2022-11-20T05:08:48;37.47;;;18.60;;
6209;SDS011;3138;52.550;13.148;2022-11-20T05:11:15;39.70;;;20.07;;
6209;SDS011;3138;52.550;13.148;2022-11-20T05:13:44;35.77;;;20.57;;
6209;SDS011;3138;52.550;13.148;2022-11-20T05:16:12;32.83;;;18.20;;
6209;SDS011;3138;52.550;13.148;2022-11-20T05:18:42;31.43;;;19.50;;
6209;SDS011;3138;52.550;13.148;2022-11-20T05:21:09;44.90;;;21.37;;
6209;SDS011;3138;52.550;13.148;2022-11-20T05:23:36;36.03;;;19.37;;
6209;SDS011;3138;52.550;13.148;2022-11-20T05:26:04;34.97;;;20.67;;
6209;SDS011;3138;52.550;13.148;2022-11-20T05:28:31;33.83;;;19.40;;
6209;SDS011;3138;52.550;13.148;2022-11-20T05:31:03;31.93;;;17.37;;
6209;SDS011;3138;52.550;13.148;2022-11-20T05:33:32;36.90;;;19.37;;
6209;SDS011;3138;52.550;13.148;2022-11-20T05:36:00;41.70;;;20.37;;
6209;SDS011;3138;52.550;13.148;2022-11-20T05:38:27;31.20;;;18.37;;
6209;SDS011;3138;52.550;13.148;2022-11-20T05:40:54;30.40;;;18.00;;
6209;SDS011;3138;52.550;13.148;2022-11-20T05:43:20;33.60;;;19.63;;
6209;SDS011;3138;52.550;13.148;2022-11-20T05:45:53;41.63;;;20.03;;
6209;SDS011;3138;52.550;13.148;2022-11-20T05:48:20;32.33;;;18.57;;
6209;SDS011;3138;52.550;13.148;2022-11-20T05:50:48;34.57;;;18.87;;
6209;SDS011;3138;52.550;13.148;2022-11-20T05:53:15;34.93;;;19.73;;
6209;SDS011;3138;52.550;13.148;2022-11-20T05:55:42;35.70;;;19.53;;
6209;SDS011;3138;52.550;13.148;2022-11-20T05:58:11;40.23;;;20.73;;
6209;SDS011;3138;52.550;13.148;2022-11-20T06:00:38;33.83;;;19.80;;
6209;SDS011;3138;52.550;13.148;2022-11-20T06:03:04;30.50;;;17.87;;
6209;SDS011;3138;52.550;13.148;2022-11-20T06:05:33;31.87;;;19.43;;
6209;SDS011;3138;52.550;13.148;2022-11-20T06:08:01;41.60;;;20.77;;
6209;SDS011;3138;52.550;13.148;2022-11-20T06:10:28;35.67;;;18.87;;
6209;SDS011;3138;52.550;13.148;2022-11-20T06:12:56;36.60;;;19.57;;
6209;SDS011;3138;52.550;13.148;2022-11-20T06:15:23;39.97;;;20.70;;
6209;SDS011;3138;52.550;13.148;2022-11-20T06:17:51;34.77;;;18.23;;
6209;SDS011;3138;52.550;13.148;2022-11-20T06:20:18;44.13;;;20.20;;
6209;SDS011;3138;52.550;13.148;2022-11-20T06:22:45;36.93;;;20.13;;
6209;SDS011;3138;52.550;13.148;2022-11-20T06:25:13;41.67;;;21.00;;
6209;SDS011;3138;52.550;13.148;2022-11-20T06:27:40;36.40;;;21.00;;
6209;SDS011;3138;52.550;13.148;2022-11-20T06:30:08;34.63;;;19.27;;
6209;SDS011;3138;52.550;13.148;2022-11-20T06:32:35;32.00;;;18.43;;
6209;SDS011;3138;52.550;13.148;2022-11-20T06:35:02;38.73;;;21.07;;
6209;SDS011;3138;52.550;13.148;2022-11-20T06:37:29;37.50;;;19.87;;
6209;SDS011;3138;52.550;13.148;2022-11-20T06:39:56;37.60;;;20.10;;
6209;SDS011;3138;52.550;13.148;2022-11-20T06:42:24;31.53;;;19.20;;
6209;SDS011;3138;52.550;13.148;2022-11-20T06:44:51;36.77;;;19.50;;
6209;SDS011;3138;52.550;13.148;2022-11-20T06:47:18;40.17;;;20.63;;
6209;SDS011;3138;52.550;13.148;2022-11-20T06:49:45;35.53;;;19.30;;
6209;SDS011;3138;52.550;13.148;2022-11-20T06:52:11;37.87;;;18.90;;
6209;SDS011;3138;52.550;13.148;2022-11-20T06:54:38;36.50;;;20.03;;
6209;SDS011;3138;52.550;13.148;2022-11-20T06:57:05;34.47;;;19.43;;
6209;SDS011;3138;52.550;13.148;2022-11-20T06:59:33;33.30;;;19.47;;
6209;SDS011;3138;52.550;13.148;2022-11-20T07:02:00;38.53;;;18.93;;
6209;SDS011;3138;52.550;13.148;2022-11-20T07:04:27;36.37;;;18.37;;
6209;SDS011;3138;52.550;13.148;2022-11-20T07:06:54;37.90;;;20.57;;
6209;SDS011;3138;52.550;13.148;2022-11-20T07:09:20;48.33;;;21.00;;
6209;SDS011;3138;52.550;13.148;2022-11-20T07:11:47;41.03;;;21.03;;
6209;SDS011;3138;52.550;13.148;2022-11-20T07:14:14;36.77;;;21.10;;
6209;SDS011;3138;52.550;13.148;2022-11-20T07:16:42;40.97;;;19.60;;
6209;SDS011;3138;52.550;13.148;2022-11-20T07:19:09;33.63;;;20.03;;
6209;SDS011;3138;52.550;13.148;2022-11-20T07:21:36;36.40;;;19.90;;
6209;SDS011;3138;52.550;13.148;2022-11-20T07:24:03;37.23;;;20.50;;
6209;SDS011;3138;52.550;13.148;2022-11-20T07:26:30;34.80;;;19.10;;
6209;SDS011;3138;52.550;13.148;2022-11-20T07:28:56;35.40;;;18.50;;
6209;SDS011;3138;52.550;13.148;2022-11-20T07:31:23;37.67;;;21.27;;
6209;SDS011;3138;52.550;13.148;2022-11-20T07:33:51;39.93;;;21.13;;
6209;SDS011;3138;52.550;13.148;2022-11-20T07:36:18;35.23;;;20.60;;
6209;SDS011;3138;52.550;13.148;2022-11-20T07:38:45;41.10;;;20.37;;
6209;SDS011;3138;52.550;13.148;2022-11-20T07:41:12;41.27;;;22.40;;
6209;SDS011;3138;52.550;13.148;2022-11-20T07:43:38;38.47;;;20.13;;
6209;SDS011;3138;52.550;13.148;2022-11-20T07:46:05;42.33;;;22.20;;
6209;SDS011;3138;52.550;13.148;2022-11-20T07:48:32;38.20;;;21.17;;
6209;SDS011;3138;52.550;13.148;2022-11-20T07:51:00;43.97;;;23.27;;
6209;SDS011;3138;52.550;13.148;2022-11-20T07:53:27;37.30;;;21.13;;
6209;SDS011;3138;52.550;13.148;2022-11-20T07:55:54;44.60;;;22.37;;
6209;SDS011;3138;52.550;13.148;2022-11-20T07:58:21;41.03;;;20.43;;
6209;SDS011;3138;52.550;13.148;2022-11-20T08:00:48;45.60;;;21.23;;
6209;SDS011;3138;52.550;13.148;2022-11-20T08:03:15;42.60;;;22.37;;
6209;SDS011;3138;52.550;13.148;2022-11-20T08:05:42;33.73;;;19.97;;
6209;SDS011;3138;52.550;13.148;2022-11-20T08:08:10;39.40;;;20.77;;
6209;SDS011;3138;52.550;13.148;2022-11-20T08:10:37;34.00;;;19.80;;
6209;SDS011;3138;52.550;13.148;2022-11-20T08:13:04;43.63;;;21.40;;
6209;SDS011;3138;52.550;13.148;2022-11-20T08:15:48;41.10;;;18.93;;
6209;SDS011;3138;52.550;13.148;2022-11-20T08:18:16;36.37;;;19.03;;
6209;SDS011;3138;52.550;13.148;2022-11-20T08:20:44;34.20;;;19.40;;
6209;SDS011;3138;52.550;13.148;2022-11-20T08:23:12;37.40;;;19.70;;
6209;SDS011;3138;52.550;13.148;2022-11-20T08:25:39;42.33;;;21.90;;
6209;SDS011;3138;52.550;13.148;2022-11-20T08:28:07;35.67;;;20.43;;
6209;SDS011;3138;52.550;13.148;2022-11-20T08:30:35;45.77;;;22.13;;
6209;SDS011;3138;52.550;13.148;2022-11-20T08:33:03;42.50;;;19.67;;
6209;SDS011;3138;52.550;13.148;2022-11-20T08:35:32;35.90;;;18.97;;
6209;SDS011;3138;52.550;13.148;2022-11-20T08:38:00;45.63;;;22.50;;
6209;SDS011;3138;52.550;13.148;2022-11-20T08:40:28;39.63;;;20.27;;
6209;SDS011;3138;52.550;13.148;2022-11-20T08:42:55;39.30;;;22.13;;
6209;SDS011;3138;52.550;13.148;2022-11-20T08:45:22;40.20;;;20.70;;
6209;SDS011;3138;52.550;13.148;2022-11-20T08:47:49;40.73;;;22.47;;
6209;SDS011;3138;52.550;13.148;2022-11-20T08:50:16;40.30;;;19.97;;
6209;SDS011;3138;52.550;13.148;2022-11-20T08:52:43;36.73;;;20.23;;
6209;SDS011;3138;52.550;13.148;2022-11-20T08:55:10;38.50;;;20.30;;
6209;SDS011;3138;52.550;13.148;2022-11-20T08:57:39;36.97;;;19.07;;
6209;SDS011;3138;52.550;13.148;2022-11-20T09:00:07;37.17;;;20.33;;
6209;SDS011;3138;52.550;13.148;2022-11-20T09:02:36;38.70;;;17.90;;
6209;SDS011;3138;52.550;13.148;2022-11-20T09:05:03;34.03;;;20.00;;
6209;SDS011;3138;52.550;13.148;2022-11-20T09:07:30;33.27;;;18.23;;
6209;SDS011;3138;52.550;13.148;2022-11-20T09:09:57;37.37;;;20.10;;
6209;SDS011;3138;52.550;13.148;2022-11-20T09:12:24;33.27;;;18.27;;
6209;SDS011;3138;52.550;13.148;2022-11-20T09:14:52;36.07;;;19.23;;
6209;SDS011;3138;52.550;13.148;2022-11-20T09:17:19;38.80;;;19.37;;
6209;SDS011;3138;52.550;13.148;2022-11-20T09:19:46;38.50;;;18.87;;
6209;SDS011;3138;52.550;13.148;2022-11-20T09:22:13;32.97;;;18.23;;
6209;SDS011;3138;52.550;13.148;2022-11-20T09:24:40;34.70;;;17.77;;
6209;SDS011;3138;52.550;13.148;2022-11-20T09:27:07;37.47;;;20.40;;
6209;SDS011;3138;52.550;13.148;2022-11-20T09:29:34;34.63;;;20.20;;
6209;SDS011;3138;52.550;13.148;2022-11-20T09:32:02;35.93;;;18.43;;
6209;SDS011;3138;52.550;13.148;2022-11-20T09:34:30;39.07;;;21.07;;
6209;SDS011;3138;52.550;13.148;2022-11-20T09:36:56;34.53;;;18.90;;
6209;SDS011;3138;52.550;13.148;2022-11-20T09:39:23;31.60;;;18.57;;
6209;SDS011;3138;52.550;13.148;2022-11-20T09:41:56;38.47;;;19.93;;
6209;SDS011;3138;52.550;13.148;2022-11-20T09:44:35;38.23;;;18.53;;
6209;SDS011;3138;52.550;13.148;2022-11-20T09:47:14;32.77;;;18.23;;
6209;SDS011;3138;52.550;13.148;2022-11-20T09:49:55;29.37;;;18.30;;
6209;SDS011;3138;52.550;13.148;2022-11-20T09:52:31;39.70;;;18.40;;
6209;SDS011;3138;52.550;13.148;2022-11-20T09:55:08;29.70;;;16.83;;
6209;SDS011;3138;52.550;13.148;2022-11-20T09:57:38;39.50;;;18.57;;
6209;SDS011;3138;52.550;13.148;2022-11-20T10:00:09;25.73;;;16.10;;
6209;SDS011;3138;52.550;13.148;2022-11-20T10:02:41;35.97;;;17.90;;
6209;SDS011;3138;52.550;13.148;2022-11-20T10:05:13;30.27;;;17.60;;
6209;SDS011;3138;52.550;13.148;2022-11-20T10:07:45;32.20;;;17.73;;
6209;SDS011;3138;52.550;13.148;2022-11-20T10:10:21;35.57;;;18.17;;
6209;SDS011;3138;52.550;13.148;2022-11-20T10:12:59;32.57;;;17.10;;
6209;SDS011;3138;52.550;13.148;2022-11-20T10:15:37;33.57;;;17.47;;
6209;SDS011;3138;52.550;13.148;2022-11-20T10:18:11;35.60;;;17.33;;
6209;SDS011;3138;52.550;13.148;2022-11-20T10:20:48;34.10;;;18.20;;
6209;SDS011;3138;52.550;13.148;2022-11-20T10:23:30;29.10;;;16.60;;
6209;SDS011;3138;52.550;13.148;2022-11-20T10:26:16;34.30;;;16.90;;
6209;SDS011;3138;52.550;13.148;2022-11-20T10:28:48;27.30;;;17.07;;
6209;SDS011;3138;52.550;13.148;2022-11-20T10:31:30;27.47;;;16.60;;
6209;SDS011;3138;52.550;13.148;2022-11-20T10:34:02;26.83;;;17.67;;
6209;SDS011;3138;52.550;13.148;2022-11-20T10:36:33;27.80;;;16.33;;
6209;SDS011;3138;52.550;13.148;2022-11-20T10:39:05;35.90;;;17.60;;
6209;SDS011;3138;52.550;13.148;2022-11-20T10:41:39;26.40;;;15.60;;
6209;SDS011;3138;52.550;13.148;2022-11-20T10:44:09;27.80;;;16.20;;
6209;SDS011;3138;52.550;13.148;2022-11-20T10:47:01;30.10;;;16.90;;
6209;SDS011;3138;52.550;13.148;2022-11-20T10:49:30;31.27;;;17.43;;
6209;SDS011;3138;52.550;13.148;2022-11-20T10:52:02;31.93;;;18.10;;
6209;SDS011;3138;52.550;13.148;2022-11-20T10:54:36;31.00;;;14.63;;
6209;SDS011;3138;52.550;13.148;2022-11-20T10:57:12;24.80;;;15.43;;
6209;SDS011;3138;52.550;13.148;2022-11-20T10:59:52;26.97;;;15.70;;
6209;SDS011;3138;52.550;13.148;2022-11-20T11:02:31;25.00;;;14.63;;
6209;SDS011;3138;52.550;13.148;2022-11-20T11:05:05;27.93;;;16.33;;
6209;SDS011;3138;52.550;13.148;2022-11-20T11:07:42;25.57;;;14.53;;
6209;SDS011;3138;52.550;13.148;2022-11-20T11:10:14;22.00;;;15.13;;
6209;SDS011;3138;52.550;13.148;2022-11-20T11:12:43;35.40;;;16.00;;
6209;SDS011;3138;52.550;13.148;2022-11-20T11:15:12;26.67;;;14.23;;
6209;SDS011;3138;52.550;13.148;2022-11-20T11:17:50;25.67;;;15.60;;
6209;SDS011;3138;52.550;13.148;2022-11-20T11:20:19;29.80;;;15.03;;
6209;SDS011;3138;52.550;13.148;2022-11-20T11:22:49;29.07;;;14.50;;
6209;SDS011;3138;52.550;13.148;2022-11-20T11:25:22;28.40;;;12.80;;
6209;SDS011;3138;52.550;13.148;2022-11-20T11:27:51;30.40;;;15.50;;
6209;SDS011;3138;52.550;13.148;2022-11-20T11:30:21;23.57;;;14.23;;
6209;SDS011;3138;52.550;13.148;2022-11-20T11:32:50;25.07;;;15.57;;
6209;SDS011;3138;52.550;13.148;2022-11-20T11:35:29;28.37;;;15.93;;
6209;SDS011;3138;52.550;13.148;2022-11-20T11:38:02;34.07;;;14.60;;
6209;SDS011;3138;52.550;13.148;2022-11-20T11:40:31;25.53;;;15.47;;
6209;SDS011;3138;52.550;13.148;2022-11-20T11:43:00;29.73;;;13.17;;
6209;SDS011;3138;52.550;13.148;2022-11-20T11:45:30;27.40;;;15.60;;
6209;SDS011;3138;52.550;13.148;2022-11-20T11:47:56;25.00;;;15.90;;
6209;SDS011;3138;52.550;13.148;2022-11-20T11:50:26;27.87;;;14.37;;
6209;SDS011;3138;52.550;13.148;2022-11-20T11:52:58;30.17;;;14.60;;
6209;SDS011;3138;52.550;13.148;2022-11-20T11:55:33;22.10;;;13.93;;
6209;SDS011;3138;52.550;13.148;2022-11-20T12:01:01;32.80;;;14.60;;
6209;SDS011;3138;52.550;13.148;2022-11-20T12:03:34;30.77;;;13.70;;
6209;SDS011;3138;52.550;13.148;2022-11-20T12:06:05;24.30;;;14.10;;
6209;SDS011;3138;52.550;13.148;2022-11-20T12:08:38;27.60;;;14.50;;
6209;SDS011;3138;52.550;13.148;2022-11-20T12:11:14;30.73;;;14.00;;
6209;SDS011;3138;52.550;13.148;2022-11-20T12:13:48;27.60;;;14.07;;
6209;SDS011;3138;52.550;13.148;2022-11-20T12:16:19;23.83;;;12.73;;
6209;SDS011;3138;52.550;13.148;2022-11-20T12:18:47;21.53;;;14.10;;
6209;SDS011;3138;52.550;13.148;2022-11-20T12:21:23;20.80;;;12.57;;
6209;SDS011;3138;52.550;13.148;2022-11-20T12:24:06;23.53;;;13.47;;
6209;SDS011;3138;52.550;13.148;2022-11-20T12:26:57;21.67;;;13.87;;
6209;SDS011;3138;52.550;13.148;2022-11-20T12:29:38;42.47;;;13.50;;
6209;SDS011;3138;52.550;13.148;2022-11-20T12:32:22;24.20;;;12.50;;
6209;SDS011;3138;52.550;13.148;2022-11-20T12:35:16;24.30;;;15.27;;
6209;SDS011;3138;52.550;13.148;2022-11-20T12:38:08;20.17;;;12.33;;
6209;SDS011;3138;52.550;13.148;2022-11-20T12:40:59;24.17;;;14.50;;
6209;SDS011;3138;52.550;13.148;2022-11-20T12:43:36;23.00;;;14.03;;
6209;SDS011;3138;52.550;13.148;2022-11-20T12:46:28;23.00;;;13.73;;
6209;SDS011;3138;52.550;13.148;2022-11-20T12:49:03;24.87;;;15.07;;
6209;SDS011;3138;52.550;13.148;2022-11-20T12:51:58;23.57;;;13.73;;
6209;SDS011;3138;52.550;13.148;2022-11-20T12:54:48;24.30;;;14.73;;
6209;SDS011;3138;52.550;13.148;2022-11-20T12:57:41;26.13;;;14.30;;
6209;SDS011;3138;52.550;13.148;2022-11-20T13:00:15;24.47;;;14.93;;
6209;SDS011;3138;52.550;13.148;2022-11-20T13:02:51;21.13;;;12.33;;
6209;SDS011;3138;52.550;13.148;2022-11-20T13:05:44;26.93;;;14.90;;
6209;SDS011;3138;52.550;13.148;2022-11-20T13:08:19;35.03;;;18.83;;
6209;SDS011;3138;52.550;13.148;2022-11-20T13:10:50;30.10;;;15.57;;
6209;SDS011;3138;52.550;13.148;2022-11-20T13:13:23;29.13;;;17.93;;
6209;SDS011;3138;52.550;13.148;2022-11-20T13:15:59;32.00;;;20.90;;
6209;SDS011;3138;52.550;13.148;2022-11-20T13:18:33;30.03;;;19.60;;
6209;SDS011;3138;52.550;13.148;2022-11-20T13:21:12;26.30;;;16.80;;
6209;SDS011;3138;52.550;13.148;2022-11-20T13:23:40;23.37;;;16.17;;
6209;SDS011;3138;52.550;13.148;2022-11-20T13:26:15;39.67;;;21.90;;
6209;SDS011;3138;52.550;13.148;2022-11-20T13:28:46;31.60;;;18.53;;
6209;SDS011;3138;52.550;13.148;2022-11-20T13:31:29;43.20;;;19.00;;
6209;SDS011;3138;52.550;13.148;2022-11-20T13:33:59;28.53;;;19.87;;
6209;SDS011;3138;52.550;13.148;2022-11-20T13:36:28;33.10;;;20.80;;
6209;SDS011;3138;52.550;13.148;2022-11-20T13:38:57;33.70;;;16.17;;
6209;SDS011;3138;52.550;13.148;2022-11-20T13:41:27;32.57;;;21.00;;
6209;SDS011;3138;52.550;13.148;2022-11-20T13:43:57;29.47;;;20.07;;
6209;SDS011;3138;52.550;13.148;2022-11-20T13:46:35;28.00;;;18.80;;
6209;SDS011;3138;52.550;13.148;2022-11-20T13:49:09;34.03;;;16.97;;
6209;SDS011;3138;52.550;13.148;2022-11-20T13:51:43;35.77;;;17.63;;
6209;SDS011;3138;52.550;13.148;2022-11-20T13:57:22;29.30;;;14.37;;
6209;SDS011;3138;52.550;13.148;2022-11-20T14:00:13;34.03;;;16.23;;
6209;SDS011;3138;52.550;13.148;2022-11-20T14:02:42;28.27;;;15.00;;
6209;SDS011;3138;52.550;13.148;2022-11-20T14:05:15;22.90;;;14.00;;
6209;SDS011;3138;52.550;13.148;2022-11-20T14:07:46;25.67;;;15.27;;
6209;SDS011;3138;52.550;13.148;2022-11-20T14:10:21;28.77;;;14.70;;
6209;SDS011;3138;52.550;13.148;2022-11-20T14:12:50;23.67;;;14.23;;
6209;SDS011;3138;52.550;13.148;2022-11-20T14:15:24;23.03;;;14.77;;
6209;SDS011;3138;52.550;13.148;2022-11-20T14:17:53;25.50;;;14.07;;
6209;SDS011;3138;52.550;13.148;2022-11-20T14:20:20;26.70;;;17.57;;
6209;SDS011;3138;52.550;13.148;2022-11-20T14:22:50;36.27;;;20.47;;
6209;SDS011;3138;52.550;13.148;2022-11-20T14:25:19;25.90;;;16.23;;
6209;SDS011;3138;52.550;13.148;2022-11-20T14:27:50;27.90;;;17.37;;
6209;SDS011;3138;52.550;13.148;2022-11-20T14:30:20;32.50;;;19.20;;
6209;SDS011;3138;52.550;13.148;2022-11-20T14:32:48;36.63;;;24.80;;
6209;SDS011;3138;52.550;13.148;2022-11-20T14:35:18;30.00;;;18.57;;
6209;SDS011;3138;52.550;13.148;2022-11-20T14:37:49;42.97;;;24.50;;
6209;SDS011;3138;52.550;13.148;2022-11-20T14:40:26;29.97;;;20.73;;
6209;SDS011;3138;52.550;13.148;2022-11-20T14:42:57;34.27;;;21.77;;
6209;SDS011;3138;52.550;13.148;2022-11-20T14:45:24;34.73;;;20.50;;
6209;SDS011;3138;52.550;13.148;2022-11-20T14:47:52;26.07;;;15.10;;
6209;SDS011;3138;52.550;13.148;2022-11-20T14:50:22;22.87;;;15.23;;
6209;SDS011;3138;52.550;13.148;2022-11-20T14:52:50;26.90;;;16.30;;
6209;SDS011;3138;52.550;13.148;2022-11-20T14:55:28;26.43;;;15.57;;
6209;SDS011;3138;52.550;13.148;2022-11-20T14:57:58;30.23;;;15.53;;